sensor_id;sensor_type;location;lat;lon;timestamp;pressure;altitude;pressure_sealevel;temperature;humidity
70437;BME280;57877;39.750;-104.894;2022-08-07T00:02:17;83874.70;;;30.35;25.55
70437;BME280;57877;39.750;-104.894;2022-08-07T00:04:42;83890.37;;;30.32;25.87
70437;BME280;57877;39.750;-104.894;2022-08-07T00:07:07;83902.87;;;30.03;26.82
70437;BME280;57877;39.750;-104.894;2022-08-07T00:09:32;83911.53;;;29.44;28.41
70437;BME280;57877;39.750;-104.894;2022-08-07T00:11:57;83919.76;;;25.86;32.36
70437;BME280;57877;39.750;-104.894;2022-08-07T00:14:22;83913.39;;;25.99;32.32
70437;BME280;57877;39.750;-104.894;2022-08-07T00:16:47;83906.33;;;25.59;33.00
70437;BME280;57877;39.750;-104.894;2022-08-07T00:19:12;83899.81;;;25.82;32.65
70437;BME280;57877;39.750;-104.894;2022-08-07T00:21:38;83896.32;;;26.24;32.36
70437;BME280;57877;39.750;-104.894;2022-08-07T00:24:05;83890.09;;;26.62;32.76
70437;BME280;57877;39.750;-104.894;2022-08-07T00:26:30;83891.59;;;26.14;32.31
70437;BME280;57877;39.750;-104.894;2022-08-07T00:28:56;83885.59;;;27.11;31.08
70437;BME280;57877;39.750;-104.894;2022-08-07T00:31:22;83883.98;;;27.31;31.60
70437;BME280;57877;39.750;-104.894;2022-08-07T00:33:47;83890.26;;;27.50;30.53
70437;BME280;57877;39.750;-104.894;2022-08-07T00:36:12;83895.59;;;27.10;30.62
70437;BME280;57877;39.750;-104.894;2022-08-07T00:38:38;83906.36;;;26.12;32.04
70437;BME280;57877;39.750;-104.894;2022-08-07T00:41:04;83913.13;;;25.49;32.66
70437;BME280;57877;39.750;-104.894;2022-08-07T00:43:29;83919.36;;;26.58;31.10
70437;BME280;57877;39.750;-104.894;2022-08-07T00:45:55;83926.68;;;26.58;30.70
70437;BME280;57877;39.750;-104.894;2022-08-07T00:48:21;83930.02;;;26.04;30.64
70437;BME280;57877;39.750;-104.894;2022-08-07T00:50:47;83931.12;;;26.73;30.23
70437;BME280;57877;39.750;-104.894;2022-08-07T00:53:14;83937.14;;;26.99;29.82
70437;BME280;57877;39.750;-104.894;2022-08-07T00:55:39;83937.98;;;26.86;29.82
70437;BME280;57877;39.750;-104.894;2022-08-07T00:58:04;83940.10;;;27.03;29.91
70437;BME280;57877;39.750;-104.894;2022-08-07T01:00:30;83935.45;;;27.79;29.41
70437;BME280;57877;39.750;-104.894;2022-08-07T01:02:54;83936.63;;;27.02;29.29
70437;BME280;57877;39.750;-104.894;2022-08-07T01:05:22;83935.51;;;27.32;29.93
70437;BME280;57877;39.750;-104.894;2022-08-07T01:07:46;83931.76;;;27.43;28.91
70437;BME280;57877;39.750;-104.894;2022-08-07T01:10:12;83929.94;;;27.91;29.11
70437;BME280;57877;39.750;-104.894;2022-08-07T01:12:41;83927.46;;;27.87;28.56
70437;BME280;57877;39.750;-104.894;2022-08-07T01:15:06;83932.48;;;27.87;28.48
70437;BME280;57877;39.750;-104.894;2022-08-07T01:17:31;83930.49;;;27.91;28.52
70437;BME280;57877;39.750;-104.894;2022-08-07T01:20:04;83930.36;;;27.54;28.50
70437;BME280;57877;39.750;-104.894;2022-08-07T01:22:22;83935.06;;;27.59;28.43
70437;BME280;57877;39.750;-104.894;2022-08-07T01:24:49;83939.51;;;27.31;28.79
70437;BME280;57877;39.750;-104.894;2022-08-07T01:27:15;83948.33;;;27.65;28.97
70437;BME280;57877;39.750;-104.894;2022-08-07T01:29:41;83959.35;;;27.21;29.20
70437;BME280;57877;39.750;-104.894;2022-08-07T01:32:07;83958.54;;;27.66;29.22
70437;BME280;57877;39.750;-104.894;2022-08-07T01:34:32;83962.07;;;27.63;29.44
70437;BME280;57877;39.750;-104.894;2022-08-07T01:37:00;83962.83;;;27.53;29.20
70437;BME280;57877;39.750;-104.894;2022-08-07T01:39:24;83964.05;;;28.03;28.92
70437;BME280;57877;39.750;-104.894;2022-08-07T01:41:51;83964.18;;;27.46;29.36
70437;BME280;57877;39.750;-104.894;2022-08-07T01:44:17;83965.47;;;27.33;29.63
70437;BME280;57877;39.750;-104.894;2022-08-07T01:46:42;83965.44;;;26.80;30.22
70437;BME280;57877;39.750;-104.894;2022-08-07T01:49:13;83966.48;;;26.47;31.05
70437;BME280;57877;39.750;-104.894;2022-08-07T01:51:35;83969.53;;;26.36;31.15
70437;BME280;57877;39.750;-104.894;2022-08-07T01:54:03;83977.39;;;26.02;32.10
70437;BME280;57877;39.750;-104.894;2022-08-07T01:56:30;83988.39;;;25.93;31.44
70437;BME280;57877;39.750;-104.894;2022-08-07T01:58:57;83994.31;;;25.81;30.18
70437;BME280;57877;39.750;-104.894;2022-08-07T02:01:23;84001.35;;;26.14;29.21
70437;BME280;57877;39.750;-104.894;2022-08-07T02:03:48;84003.79;;;26.39;28.71
70437;BME280;57877;39.750;-104.894;2022-08-07T02:06:14;84018.49;;;26.13;29.14
70437;BME280;57877;39.750;-104.894;2022-08-07T02:08:37;84020.04;;;25.36;30.52
70437;BME280;57877;39.750;-104.894;2022-08-07T02:11:02;84028.48;;;25.97;30.06
70437;BME280;57877;39.750;-104.894;2022-08-07T02:13:30;84037.98;;;25.57;30.11
70437;BME280;57877;39.750;-104.894;2022-08-07T02:15:56;84051.12;;;25.22;31.25
70437;BME280;57877;39.750;-104.894;2022-08-07T02:18:20;84055.79;;;26.10;29.91
70437;BME280;57877;39.750;-104.894;2022-08-07T02:20:50;84060.67;;;26.05;30.22
70437;BME280;57877;39.750;-104.894;2022-08-07T02:23:13;84065.79;;;25.89;30.54
70437;BME280;57877;39.750;-104.894;2022-08-07T02:25:40;84054.87;;;25.79;30.76
70437;BME280;57877;39.750;-104.894;2022-08-07T02:28:04;84049.00;;;25.62;30.69
70437;BME280;57877;39.750;-104.894;2022-08-07T02:30:29;84047.50;;;24.97;31.39
70437;BME280;57877;39.750;-104.894;2022-08-07T02:32:55;84045.75;;;25.73;31.60
70437;BME280;57877;39.750;-104.894;2022-08-07T02:35:20;84052.50;;;26.02;32.62
70437;BME280;57877;39.750;-104.894;2022-08-07T02:37:48;84060.38;;;25.27;35.25
70437;BME280;57877;39.750;-104.894;2022-08-07T02:40:12;84066.47;;;24.77;37.49
70437;BME280;57877;39.750;-104.894;2022-08-07T02:42:38;84067.21;;;24.73;39.07
70437;BME280;57877;39.750;-104.894;2022-08-07T02:45:07;84067.63;;;24.61;37.70
70437;BME280;57877;39.750;-104.894;2022-08-07T02:47:30;84068.99;;;24.80;39.37
70437;BME280;57877;39.750;-104.894;2022-08-07T02:49:56;84067.04;;;25.11;37.20
70437;BME280;57877;39.750;-104.894;2022-08-07T02:52:28;84063.36;;;24.59;37.81
70437;BME280;57877;39.750;-104.894;2022-08-07T02:54:50;84051.24;;;24.46;38.86
70437;BME280;57877;39.750;-104.894;2022-08-07T02:57:15;84046.41;;;23.94;42.29
70437;BME280;57877;39.750;-104.894;2022-08-07T02:59:41;84037.29;;;22.93;45.24
70437;BME280;57877;39.750;-104.894;2022-08-07T03:02:06;84030.99;;;22.40;45.66
70437;BME280;57877;39.750;-104.894;2022-08-07T03:04:32;84032.65;;;22.15;47.64
70437;BME280;57877;39.750;-104.894;2022-08-07T03:06:58;84038.02;;;21.46;48.82
70437;BME280;57877;39.750;-104.894;2022-08-07T03:09:23;84040.93;;;22.17;49.10
70437;BME280;57877;39.750;-104.894;2022-08-07T03:11:49;84038.58;;;22.50;48.98
70437;BME280;57877;39.750;-104.894;2022-08-07T03:14:16;84049.57;;;23.14;50.30
70437;BME280;57877;39.750;-104.894;2022-08-07T03:16:42;84054.46;;;23.01;50.57
70437;BME280;57877;39.750;-104.894;2022-08-07T03:19:08;84055.72;;;23.29;47.50
70437;BME280;57877;39.750;-104.894;2022-08-07T03:21:33;84062.98;;;23.31;48.13
70437;BME280;57877;39.750;-104.894;2022-08-07T03:24:00;84059.48;;;22.61;45.12
70437;BME280;57877;39.750;-104.894;2022-08-07T03:26:29;84065.74;;;22.87;46.15
70437;BME280;57877;39.750;-104.894;2022-08-07T03:28:52;84077.21;;;22.61;45.00
70437;BME280;57877;39.750;-104.894;2022-08-07T03:31:17;84083.35;;;21.90;46.44
70437;BME280;57877;39.750;-104.894;2022-08-07T03:33:46;84082.22;;;22.25;45.96
70437;BME280;57877;39.750;-104.894;2022-08-07T03:36:10;84087.88;;;22.30;46.92
70437;BME280;57877;39.750;-104.894;2022-08-07T03:38:36;84092.95;;;21.96;46.10
70437;BME280;57877;39.750;-104.894;2022-08-07T03:41:01;84083.77;;;21.71;46.21
70437;BME280;57877;39.750;-104.894;2022-08-07T03:43:27;84080.04;;;22.47;45.07
70437;BME280;57877;39.750;-104.894;2022-08-07T03:45:53;84073.89;;;22.55;44.92
70437;BME280;57877;39.750;-104.894;2022-08-07T03:48:18;84076.38;;;22.79;44.79
70437;BME280;57877;39.750;-104.894;2022-08-07T03:50:44;84079.12;;;22.71;44.47
70437;BME280;57877;39.750;-104.894;2022-08-07T03:53:10;84071.58;;;22.60;44.51
70437;BME280;57877;39.750;-104.894;2022-08-07T03:55:37;84066.81;;;22.65;45.13
70437;BME280;57877;39.750;-104.894;2022-08-07T03:58:02;84058.69;;;22.11;45.98
70437;BME280;57877;39.750;-104.894;2022-08-07T04:00:28;84062.26;;;22.01;46.12
70437;BME280;57877;39.750;-104.894;2022-08-07T04:02:53;84060.30;;;21.05;46.56
70437;BME280;57877;39.750;-104.894;2022-08-07T04:05:20;84052.55;;;22.12;46.51
70437;BME280;57877;39.750;-104.894;2022-08-07T04:07:46;84042.56;;;22.36;45.47
70437;BME280;57877;39.750;-104.894;2022-08-07T04:10:11;84035.31;;;22.64;44.22
70437;BME280;57877;39.750;-104.894;2022-08-07T04:12:37;84033.74;;;22.23;44.52
70437;BME280;57877;39.750;-104.894;2022-08-07T04:15:03;84034.26;;;22.48;44.18
70437;BME280;57877;39.750;-104.894;2022-08-07T04:17:27;84024.11;;;22.34;44.26
70437;BME280;57877;39.750;-104.894;2022-08-07T04:19:53;84020.65;;;22.17;44.37
70437;BME280;57877;39.750;-104.894;2022-08-07T04:22:20;84016.12;;;22.46;43.41
70437;BME280;57877;39.750;-104.894;2022-08-07T04:24:45;84011.18;;;21.83;45.10
70437;BME280;57877;39.750;-104.894;2022-08-07T04:27:11;84000.85;;;21.35;46.24
70437;BME280;57877;39.750;-104.894;2022-08-07T04:29:37;83995.10;;;21.39;45.37
70437;BME280;57877;39.750;-104.894;2022-08-07T04:32:05;83990.79;;;21.03;45.34
70437;BME280;57877;39.750;-104.894;2022-08-07T04:34:30;83980.63;;;21.55;44.93
70437;BME280;57877;39.750;-104.894;2022-08-07T04:36:56;83978.17;;;21.66;44.36
70437;BME280;57877;39.750;-104.894;2022-08-07T04:39:21;83977.17;;;21.74;43.34
70437;BME280;57877;39.750;-104.894;2022-08-07T04:41:46;83989.39;;;22.30;41.50
70437;BME280;57877;39.750;-104.894;2022-08-07T04:44:12;83999.82;;;22.80;39.58
70437;BME280;57877;39.750;-104.894;2022-08-07T04:46:40;83992.88;;;22.38;42.48
70437;BME280;57877;39.750;-104.894;2022-08-07T04:49:11;83977.68;;;22.77;41.98
70437;BME280;57877;39.750;-104.894;2022-08-07T04:51:36;83974.58;;;22.78;41.50
70437;BME280;57877;39.750;-104.894;2022-08-07T04:54:01;83982.37;;;22.51;41.60
70437;BME280;57877;39.750;-104.894;2022-08-07T04:56:26;83981.68;;;22.66;42.13
70437;BME280;57877;39.750;-104.894;2022-08-07T04:58:53;83977.02;;;22.78;41.88
70437;BME280;57877;39.750;-104.894;2022-08-07T05:01:19;83973.68;;;23.06;41.80
70437;BME280;57877;39.750;-104.894;2022-08-07T05:03:43;83974.02;;;22.69;42.55
70437;BME280;57877;39.750;-104.894;2022-08-07T05:06:08;83974.06;;;22.70;43.01
70437;BME280;57877;39.750;-104.894;2022-08-07T05:08:39;83976.84;;;22.31;43.64
70437;BME280;57877;39.750;-104.894;2022-08-07T05:11:03;83983.23;;;22.20;43.81
70437;BME280;57877;39.750;-104.894;2022-08-07T05:13:28;83979.15;;;22.65;43.70
70437;BME280;57877;39.750;-104.894;2022-08-07T05:15:50;83973.29;;;22.09;43.87
70437;BME280;57877;39.750;-104.894;2022-08-07T05:18:19;83970.00;;;22.35;42.99
70437;BME280;57877;39.750;-104.894;2022-08-07T05:20:45;83967.60;;;22.38;42.71
70437;BME280;57877;39.750;-104.894;2022-08-07T05:23:10;83967.45;;;22.76;41.92
70437;BME280;57877;39.750;-104.894;2022-08-07T05:25:33;83972.37;;;23.01;41.26
70437;BME280;57877;39.750;-104.894;2022-08-07T05:28:00;83972.62;;;23.25;41.00
70437;BME280;57877;39.750;-104.894;2022-08-07T05:30:25;83971.69;;;23.27;40.66
70437;BME280;57877;39.750;-104.894;2022-08-07T05:32:50;83966.95;;;22.76;41.35
70437;BME280;57877;39.750;-104.894;2022-08-07T05:35:15;83968.20;;;22.71;41.00
70437;BME280;57877;39.750;-104.894;2022-08-07T05:37:40;83968.97;;;22.73;41.42
70437;BME280;57877;39.750;-104.894;2022-08-07T05:40:08;83964.45;;;23.15;40.99
70437;BME280;57877;39.750;-104.894;2022-08-07T05:42:32;83966.21;;;23.06;40.74
70437;BME280;57877;39.750;-104.894;2022-08-07T05:44:58;83965.42;;;23.44;40.11
70437;BME280;57877;39.750;-104.894;2022-08-07T05:47:23;83967.76;;;23.07;40.31
70437;BME280;57877;39.750;-104.894;2022-08-07T05:49:48;83966.67;;;23.43;39.82
70437;BME280;57877;39.750;-104.894;2022-08-07T05:52:14;83961.91;;;23.09;40.02
70437;BME280;57877;39.750;-104.894;2022-08-07T05:54:40;83961.93;;;22.89;40.42
70437;BME280;57877;39.750;-104.894;2022-08-07T05:57:06;83963.14;;;23.37;39.63
70437;BME280;57877;39.750;-104.894;2022-08-07T05:59:31;83966.05;;;23.16;39.90
70437;BME280;57877;39.750;-104.894;2022-08-07T06:01:57;83961.79;;;22.06;41.82
70437;BME280;57877;39.750;-104.894;2022-08-07T06:04:23;83962.47;;;23.48;39.48
70437;BME280;57877;39.750;-104.894;2022-08-07T06:06:49;83966.45;;;22.93;39.46
70437;BME280;57877;39.750;-104.894;2022-08-07T06:09:16;83965.73;;;22.31;40.34
70437;BME280;57877;39.750;-104.894;2022-08-07T06:11:41;83970.89;;;23.36;39.14
70437;BME280;57877;39.750;-104.894;2022-08-07T06:14:07;83967.74;;;23.29;39.04
70437;BME280;57877;39.750;-104.894;2022-08-07T06:16:34;83965.48;;;23.59;38.87
70437;BME280;57877;39.750;-104.894;2022-08-07T06:18:59;83964.88;;;23.44;38.40
70437;BME280;57877;39.750;-104.894;2022-08-07T06:21:25;83960.53;;;22.78;38.99
70437;BME280;57877;39.750;-104.894;2022-08-07T06:23:51;83955.42;;;23.46;38.45
70437;BME280;57877;39.750;-104.894;2022-08-07T06:26:17;83959.32;;;22.26;39.74
70437;BME280;57877;39.750;-104.894;2022-08-07T06:28:48;83957.25;;;22.66;39.30
70437;BME280;57877;39.750;-104.894;2022-08-07T06:31:09;83959.38;;;22.93;38.39
70437;BME280;57877;39.750;-104.894;2022-08-07T06:33:35;83958.11;;;22.87;38.31
70437;BME280;57877;39.750;-104.894;2022-08-07T06:36:01;83964.21;;;23.34;37.77
70437;BME280;57877;39.750;-104.894;2022-08-07T06:38:27;83960.10;;;22.80;38.25
70437;BME280;57877;39.750;-104.894;2022-08-07T06:40:53;83959.10;;;23.04;37.54
70437;BME280;57877;39.750;-104.894;2022-08-07T06:43:21;83961.36;;;23.43;37.30
70437;BME280;57877;39.750;-104.894;2022-08-07T06:45:45;83957.47;;;23.53;37.25
70437;BME280;57877;39.750;-104.894;2022-08-07T06:48:11;83956.84;;;23.45;37.32
70437;BME280;57877;39.750;-104.894;2022-08-07T06:50:39;83950.48;;;23.63;37.44
70437;BME280;57877;39.750;-104.894;2022-08-07T06:53:03;83946.67;;;23.56;37.31
70437;BME280;57877;39.750;-104.894;2022-08-07T06:55:31;83945.38;;;23.63;36.88
70437;BME280;57877;39.750;-104.894;2022-08-07T06:57:58;83937.54;;;23.35;37.30
70437;BME280;57877;39.750;-104.894;2022-08-07T07:00:21;83936.28;;;23.57;37.06
70437;BME280;57877;39.750;-104.894;2022-08-07T07:02:47;83931.20;;;23.52;37.19
70437;BME280;57877;39.750;-104.894;2022-08-07T07:05:13;83930.95;;;23.34;37.56
70437;BME280;57877;39.750;-104.894;2022-08-07T07:07:39;83924.27;;;23.19;38.08
70437;BME280;57877;39.750;-104.894;2022-08-07T07:10:06;83923.64;;;23.01;38.07
70437;BME280;57877;39.750;-104.894;2022-08-07T07:12:37;83919.89;;;22.46;38.81
70437;BME280;57877;39.750;-104.894;2022-08-07T07:15:02;83916.74;;;22.97;37.87
70437;BME280;57877;39.750;-104.894;2022-08-07T07:17:30;83914.62;;;22.95;37.67
70437;BME280;57877;39.750;-104.894;2022-08-07T07:19:54;83909.29;;;23.07;37.50
70437;BME280;57877;39.750;-104.894;2022-08-07T07:22:17;83907.14;;;23.21;37.40
70437;BME280;57877;39.750;-104.894;2022-08-07T07:24:42;83899.98;;;23.45;37.00
70437;BME280;57877;39.750;-104.894;2022-08-07T07:27:07;83898.47;;;23.02;36.91
70437;BME280;57877;39.750;-104.894;2022-08-07T07:29:36;83897.22;;;22.96;37.25
70437;BME280;57877;39.750;-104.894;2022-08-07T07:32:02;83899.13;;;23.41;36.69
70437;BME280;57877;39.750;-104.894;2022-08-07T07:34:28;83899.70;;;23.32;36.39
70437;BME280;57877;39.750;-104.894;2022-08-07T07:36:51;83898.01;;;23.64;35.97
70437;BME280;57877;39.750;-104.894;2022-08-07T07:39:17;83894.79;;;23.47;35.98
70437;BME280;57877;39.750;-104.894;2022-08-07T07:41:46;83889.10;;;23.32;35.66
70437;BME280;57877;39.750;-104.894;2022-08-07T07:44:09;83889.34;;;23.55;35.43
70437;BME280;57877;39.750;-104.894;2022-08-07T07:46:37;83883.02;;;23.29;35.30
70437;BME280;57877;39.750;-104.894;2022-08-07T07:49:02;83882.12;;;23.48;35.35
70437;BME280;57877;39.750;-104.894;2022-08-07T07:51:28;83882.41;;;23.15;35.51
70437;BME280;57877;39.750;-104.894;2022-08-07T07:53:53;83884.20;;;23.35;35.07
70437;BME280;57877;39.750;-104.894;2022-08-07T07:56:20;83886.74;;;22.84;35.66
70437;BME280;57877;39.750;-104.894;2022-08-07T07:58:45;83884.03;;;22.51;36.06
70437;BME280;57877;39.750;-104.894;2022-08-07T08:01:12;83882.39;;;23.34;35.16
70437;BME280;57877;39.750;-104.894;2022-08-07T08:03:38;83877.88;;;23.15;34.93
70437;BME280;57877;39.750;-104.894;2022-08-07T08:06:02;83873.95;;;22.88;35.66
70437;BME280;57877;39.750;-104.894;2022-08-07T08:08:30;83869.86;;;23.09;35.40
70437;BME280;57877;39.750;-104.894;2022-08-07T08:10:54;83869.63;;;22.37;35.79
70437;BME280;57877;39.750;-104.894;2022-08-07T08:13:22;83865.79;;;23.50;34.52
70437;BME280;57877;39.750;-104.894;2022-08-07T08:15:46;83861.35;;;23.55;34.09
70437;BME280;57877;39.750;-104.894;2022-08-07T08:18:12;83856.81;;;23.60;33.67
70437;BME280;57877;39.750;-104.894;2022-08-07T08:20:38;83851.14;;;23.99;33.38
70437;BME280;57877;39.750;-104.894;2022-08-07T08:23:06;83851.19;;;23.83;33.63
70437;BME280;57877;39.750;-104.894;2022-08-07T08:25:33;83849.99;;;24.10;32.95
70437;BME280;57877;39.750;-104.894;2022-08-07T08:27:57;83848.35;;;23.94;32.76
70437;BME280;57877;39.750;-104.894;2022-08-07T08:30:23;83841.85;;;24.50;32.70
70437;BME280;57877;39.750;-104.894;2022-08-07T08:32:53;83840.25;;;23.70;33.33
70437;BME280;57877;39.750;-104.894;2022-08-07T08:35:18;83838.34;;;23.63;33.75
70437;BME280;57877;39.750;-104.894;2022-08-07T08:37:41;83831.74;;;23.79;33.51
70437;BME280;57877;39.750;-104.894;2022-08-07T08:40:23;83830.49;;;23.87;33.77
70437;BME280;57877;39.750;-104.894;2022-08-07T08:42:38;83831.77;;;23.43;33.84
70437;BME280;57877;39.750;-104.894;2022-08-07T08:45:05;83833.37;;;23.32;34.19
70437;BME280;57877;39.750;-104.894;2022-08-07T08:47:28;83832.10;;;23.34;34.14
70437;BME280;57877;39.750;-104.894;2022-08-07T08:50:00;83830.50;;;22.87;34.92
70437;BME280;57877;39.750;-104.894;2022-08-07T08:52:21;83831.52;;;22.97;34.55
70437;BME280;57877;39.750;-104.894;2022-08-07T08:54:48;83831.31;;;22.90;34.66
70437;BME280;57877;39.750;-104.894;2022-08-07T08:57:13;83835.46;;;23.06;33.89
70437;BME280;57877;39.750;-104.894;2022-08-07T08:59:41;83835.82;;;23.09;33.83
70437;BME280;57877;39.750;-104.894;2022-08-07T09:02:06;83838.29;;;23.58;33.81
70437;BME280;57877;39.750;-104.894;2022-08-07T09:04:35;83840.59;;;23.41;33.81
70437;BME280;57877;39.750;-104.894;2022-08-07T09:06:56;83842.52;;;23.51;33.86
70437;BME280;57877;39.750;-104.894;2022-08-07T09:09:30;83845.66;;;23.64;33.90
70437;BME280;57877;39.750;-104.894;2022-08-07T09:11:49;83844.64;;;23.83;33.59
70437;BME280;57877;39.750;-104.894;2022-08-07T09:14:13;83847.00;;;23.42;34.27
70437;BME280;57877;39.750;-104.894;2022-08-07T09:16:47;83844.68;;;23.82;34.27
70437;BME280;57877;39.750;-104.894;2022-08-07T09:19:14;83847.69;;;23.46;34.24
70437;BME280;57877;39.750;-104.894;2022-08-07T09:21:35;83846.37;;;23.30;34.17
70437;BME280;57877;39.750;-104.894;2022-08-07T09:23:58;83846.14;;;23.56;34.37
70437;BME280;57877;39.750;-104.894;2022-08-07T09:26:26;83845.90;;;23.62;33.29
70437;BME280;57877;39.750;-104.894;2022-08-07T09:28:52;83847.72;;;23.60;33.36
70437;BME280;57877;39.750;-104.894;2022-08-07T09:31:18;83850.92;;;23.70;33.59
70437;BME280;57877;39.750;-104.894;2022-08-07T09:33:50;83850.99;;;23.83;33.39
70437;BME280;57877;39.750;-104.894;2022-08-07T09:36:11;83852.65;;;23.77;33.16
70437;BME280;57877;39.750;-104.894;2022-08-07T09:38:37;83847.13;;;23.59;33.43
70437;BME280;57877;39.750;-104.894;2022-08-07T09:41:05;83844.68;;;23.33;32.79
70437;BME280;57877;39.750;-104.894;2022-08-07T09:43:30;83847.87;;;23.82;32.89
70437;BME280;57877;39.750;-104.894;2022-08-07T09:45:56;83850.36;;;23.63;32.60
70437;BME280;57877;39.750;-104.894;2022-08-07T09:48:26;83854.14;;;23.22;32.71
70437;BME280;57877;39.750;-104.894;2022-08-07T09:50:55;83851.33;;;23.28;32.89
70437;BME280;57877;39.750;-104.894;2022-08-07T09:53:08;83852.34;;;23.46;32.76
70437;BME280;57877;39.750;-104.894;2022-08-07T09:55:40;83853.40;;;23.44;32.81
70437;BME280;57877;39.750;-104.894;2022-08-07T10:00:23;83858.30;;;23.62;32.38
70437;BME280;57877;39.750;-104.894;2022-08-07T10:02:55;83859.30;;;24.11;32.20
70437;BME280;57877;39.750;-104.894;2022-08-07T10:07:44;83865.69;;;24.00;33.33
70437;BME280;57877;39.750;-104.894;2022-08-07T10:10:15;83864.95;;;23.78;33.28
70437;BME280;57877;39.750;-104.894;2022-08-07T10:19:50;83868.01;;;24.08;34.08
70437;BME280;57877;39.750;-104.894;2022-08-07T10:24:41;83856.87;;;23.97;32.86
70437;BME280;57877;39.750;-104.894;2022-08-07T10:27:06;83856.71;;;24.02;33.01
70437;BME280;57877;39.750;-104.894;2022-08-07T10:31:58;83864.98;;;23.72;33.11
70437;BME280;57877;39.750;-104.894;2022-08-07T10:36:50;83877.67;;;23.88;33.06
70437;BME280;57877;39.750;-104.894;2022-08-07T10:39:08;83873.85;;;23.99;33.22
70437;BME280;57877;39.750;-104.894;2022-08-07T10:41:32;83880.17;;;23.82;33.83
70437;BME280;57877;39.750;-104.894;2022-08-07T10:43:56;83881.62;;;24.14;33.52
70437;BME280;57877;39.750;-104.894;2022-08-07T10:46:18;83886.52;;;24.12;33.45
70437;BME280;57877;39.750;-104.894;2022-08-07T10:48:48;83885.11;;;23.84;33.19
70437;BME280;57877;39.750;-104.894;2022-08-07T10:51:10;83889.89;;;23.66;33.31
70437;BME280;57877;39.750;-104.894;2022-08-07T10:53:38;83898.61;;;23.90;33.18
70437;BME280;57877;39.750;-104.894;2022-08-07T10:56:03;83901.83;;;24.25;33.02
70437;BME280;57877;39.750;-104.894;2022-08-07T10:58:33;83910.12;;;23.92;33.11
70437;BME280;57877;39.750;-104.894;2022-08-07T11:00:54;83907.46;;;24.49;33.27
70437;BME280;57877;39.750;-104.894;2022-08-07T11:03:18;83915.53;;;23.81;33.09
70437;BME280;57877;39.750;-104.894;2022-08-07T11:05:44;83924.25;;;23.74;33.50
70437;BME280;57877;39.750;-104.894;2022-08-07T11:08:10;83927.00;;;24.05;33.94
70437;BME280;57877;39.750;-104.894;2022-08-07T11:10:32;83933.75;;;23.72;34.10
70437;BME280;57877;39.750;-104.894;2022-08-07T11:12:57;83937.62;;;23.31;34.28
70437;BME280;57877;39.750;-104.894;2022-08-07T11:15:22;83943.12;;;23.57;34.96
70437;BME280;57877;39.750;-104.894;2022-08-07T11:17:47;83944.46;;;23.56;34.71
70437;BME280;57877;39.750;-104.894;2022-08-07T11:20:13;83949.60;;;23.37;35.20
70437;BME280;57877;39.750;-104.894;2022-08-07T11:22:35;83950.84;;;23.76;34.72
70437;BME280;57877;39.750;-104.894;2022-08-07T11:25:04;83963.55;;;23.42;35.23
70437;BME280;57877;39.750;-104.894;2022-08-07T11:27:29;83961.97;;;23.39;35.64
70437;BME280;57877;39.750;-104.894;2022-08-07T11:29:56;83962.17;;;23.21;36.01
70437;BME280;57877;39.750;-104.894;2022-08-07T11:32:17;83965.25;;;23.68;35.52
70437;BME280;57877;39.750;-104.894;2022-08-07T11:34:45;83965.55;;;23.45;35.63
70437;BME280;57877;39.750;-104.894;2022-08-07T11:37:12;83977.52;;;22.99;36.33
70437;BME280;57877;39.750;-104.894;2022-08-07T11:39:42;83986.41;;;22.98;37.04
70437;BME280;57877;39.750;-104.894;2022-08-07T11:41:59;83988.53;;;22.64;37.12
70437;BME280;57877;39.750;-104.894;2022-08-07T11:44:30;83996.73;;;23.32;36.64
70437;BME280;57877;39.750;-104.894;2022-08-07T11:46:57;83999.52;;;22.99;36.48
70437;BME280;57877;39.750;-104.894;2022-08-07T11:49:19;84003.87;;;23.17;36.32
70437;BME280;57877;39.750;-104.894;2022-08-07T11:51:47;84001.99;;;23.00;36.28
70437;BME280;57877;39.750;-104.894;2022-08-07T11:54:18;84001.39;;;22.69;36.79
70437;BME280;57877;39.750;-104.894;2022-08-07T11:56:40;84008.27;;;22.03;37.67
70437;BME280;57877;39.750;-104.894;2022-08-07T11:59:04;84011.99;;;22.40;38.05
70437;BME280;57877;39.750;-104.894;2022-08-07T12:01:31;84012.97;;;22.76;37.72
70437;BME280;57877;39.750;-104.894;2022-08-07T12:03:56;84014.74;;;22.66;37.88
70437;BME280;57877;39.750;-104.894;2022-08-07T12:06:21;84013.58;;;22.25;37.86
70437;BME280;57877;39.750;-104.894;2022-08-07T12:08:39;84018.31;;;22.19;37.90
70437;BME280;57877;39.750;-104.894;2022-08-07T12:11:04;84021.67;;;22.59;37.89
70437;BME280;57877;39.750;-104.894;2022-08-07T12:13:27;84026.48;;;22.50;37.58
70437;BME280;57877;39.750;-104.894;2022-08-07T12:15:52;84033.67;;;22.47;37.74
70437;BME280;57877;39.750;-104.894;2022-08-07T12:18:21;84038.90;;;22.70;37.79
70437;BME280;57877;39.750;-104.894;2022-08-07T12:20:46;84043.53;;;22.46;37.90
70437;BME280;57877;39.750;-104.894;2022-08-07T12:23:13;84048.82;;;22.31;38.34
70437;BME280;57877;39.750;-104.894;2022-08-07T12:25:33;84053.84;;;22.25;38.56
70437;BME280;57877;39.750;-104.894;2022-08-07T12:27:57;84057.04;;;21.85;39.20
70437;BME280;57877;39.750;-104.894;2022-08-07T12:30:25;84055.63;;;21.24;40.66
70437;BME280;57877;39.750;-104.894;2022-08-07T12:32:49;84065.51;;;21.95;40.50
70437;BME280;57877;39.750;-104.894;2022-08-07T12:35:12;84078.81;;;21.01;41.72
70437;BME280;57877;39.750;-104.894;2022-08-07T12:37:35;84081.79;;;20.66;42.70
70437;BME280;57877;39.750;-104.894;2022-08-07T12:40:01;84094.24;;;20.76;42.86
70437;BME280;57877;39.750;-104.894;2022-08-07T12:42:26;84100.64;;;20.96;42.52